Time;durP1;ratioP1;P1;durP2;ratioP2;P2;SDS_P1;SDS_P2;PMS_P1;PMS_P2;Temp;Humidity;BMP_temperature;BMP_pressure;BME280_temperature;BME280_humidity;BME280_pressure;Samples;Min_cycle;Max_cycle;Signal;HPM_P1;HPM_P2
2021/11/25 00:00:22;;;;;;;33.58;22.77;;;3.30;99.90;;;;;;5054718;28;20447;-60
2021/11/25 00:02:49;;;;;;;30.10;20.40;;;3.40;99.90;;;;;;5051635;28;20179;-56
2021/11/25 00:05:15;;;;;;;29.95;20.17;;;3.40;99.90;;;;;;5051673;28;20289;-59
2021/11/25 00:07:40;;;;;;;33.03;21.53;;;3.50;99.90;;;;;;5050150;28;20294;-58
2021/11/25 00:10:08;;;;;;;32.53;21.93;;;3.60;99.90;;;;;;5049230;28;20437;-59
2021/11/25 00:12:34;;;;;;;34.13;22.48;;;3.60;99.90;;;;;;5050121;28;20189;-59
2021/11/25 00:14:59;;;;;;;31.47;21.40;;;3.70;99.90;;;;;;5049646;28;20668;-58
2021/11/25 00:17:25;;;;;;;31.27;22.40;;;3.80;99.90;;;;;;5050100;28;20440;-61
2021/11/25 00:19:51;;;;;;;28.83;20.50;;;3.80;99.90;;;;;;5046185;28;20190;-58
2021/11/25 00:22:16;;;;;;;31.13;21.70;;;3.90;99.90;;;;;;5048805;28;20178;-60
2021/11/25 00:24:42;;;;;;;31.03;21.17;;;4.00;99.90;;;;;;5048623;28;20200;-60
2021/11/25 00:27:08;;;;;;;29.90;21.00;;;4.10;99.90;;;;;;5049229;28;20277;-59
2021/11/25 00:29:34;;;;;;;30.57;21.20;;;4.10;99.90;;;;;;5049301;28;20281;-59
2021/11/25 00:32:00;;;;;;;31.17;21.93;;;4.10;99.90;;;;;;5049225;28;20253;-58
2021/11/25 00:34:26;;;;;;;29.57;20.83;;;4.10;99.90;;;;;;5047606;28;20218;-59
2021/11/25 00:36:51;;;;;;;32.93;22.70;;;4.10;99.90;;;;;;5047992;28;20436;-56
2021/11/25 00:39:17;;;;;;;31.10;22.27;;;4.20;99.90;;;;;;5049545;28;20214;-59
2021/11/25 00:41:47;;;;;;;28.50;21.80;;;4.20;99.90;;;;;;5037806;28;20240;-59
2021/11/25 00:44:13;;;;;;;33.28;22.40;;;4.30;99.90;;;;;;5045627;28;20525;-56
2021/11/25 00:46:39;;;;;;;28.52;21.17;;;4.20;99.90;;;;;;5031032;28;20190;-57
2021/11/25 00:49:05;;;;;;;32.30;22.83;;;4.20;99.90;;;;;;5047900;28;20644;-58
2021/11/25 00:51:31;;;;;;;33.47;21.70;;;4.20;99.90;;;;;;5044660;28;20205;-59
2021/11/25 00:53:56;;;;;;;31.33;21.13;;;4.30;99.90;;;;;;5042725;28;20559;-60
2021/11/25 00:56:22;;;;;;;29.93;21.67;;;4.30;99.90;;;;;;5035208;28;20453;-59
2021/11/25 00:58:48;;;;;;;29.10;21.43;;;4.20;99.90;;;;;;5034519;28;20178;-59
2021/11/25 01:01:14;;;;;;;30.87;21.30;;;4.20;99.90;;;;;;5047604;28;20438;-59
2021/11/25 01:03:40;;;;;;;29.40;20.52;;;4.20;99.90;;;;;;5038355;28;20240;-59
2021/11/25 01:06:06;;;;;;;28.30;20.40;;;4.20;99.90;;;;;;5043073;28;20210;-59
2021/11/25 01:08:32;;;;;;;28.23;21.10;;;4.30;99.90;;;;;;5042965;28;20507;-59
2021/11/25 01:10:58;;;;;;;28.60;20.70;;;4.30;99.90;;;;;;5036084;28;20450;-58
2021/11/25 01:13:24;;;;;;;27.90;20.00;;;4.20;99.90;;;;;;5042346;28;20213;-56
2021/11/25 01:15:49;;;;;;;25.77;18.43;;;4.30;99.90;;;;;;5043430;28;20265;-59
2021/11/25 01:18:17;;;;;;;26.80;19.23;;;4.20;99.90;;;;;;5036436;28;20437;-56
2021/11/25 01:20:45;;;;;;;26.80;18.15;;;4.20;99.90;;;;;;5040934;28;20178;-57
2021/11/25 01:23:14;;;;;;;24.15;19.45;;;4.20;99.90;;;;;;5030528;28;20190;-59
2021/11/25 01:25:40;;;;;;;25.77;19.20;;;4.20;99.90;;;;;;5047800;28;20221;-58
2021/11/25 01:28:12;;;;;;;29.88;18.20;;;4.10;99.90;;;;;;5040817;28;20260;-59
2021/11/25 01:30:41;;;;;;;24.25;18.42;;;4.10;99.90;;;;;;5039691;28;20204;-58
2021/11/25 01:33:07;;;;;;;25.05;18.98;;;4.00;99.90;;;;;;5039429;28;20202;-59
2021/11/25 01:35:33;;;;;;;24.85;18.55;;;4.00;99.90;;;;;;5047590;28;20853;-58
2021/11/25 01:37:59;;;;;;;25.75;19.45;;;4.00;99.90;;;;;;5046233;28;20178;-58
2021/11/25 01:40:25;;;;;;;26.67;18.73;;;3.90;99.90;;;;;;5044564;28;20222;-56
2021/11/25 01:42:50;;;;;;;25.57;18.63;;;3.90;99.90;;;;;;5051256;28;20190;-58
2021/11/25 01:45:18;;;;;;;25.08;18.38;;;3.90;99.90;;;;;;5045461;28;20195;-58
2021/11/25 01:47:46;;;;;;;24.75;19.05;;;3.80;99.90;;;;;;5035405;28;20183;-59
2021/11/25 01:50:14;;;;;;;23.85;18.00;;;3.80;99.90;;;;;;5042558;28;20229;-59
2021/11/25 01:52:40;;;;;;;23.70;18.25;;;3.70;99.90;;;;;;5033837;28;20218;-58
2021/11/25 01:55:06;;;;;;;25.95;19.73;;;3.70;99.90;;;;;;5045403;28;20252;-59
2021/11/25 01:57:32;;;;;;;25.27;18.27;;;3.60;99.90;;;;;;5040686;28;20182;-59
2021/11/25 01:59:58;;;;;;;26.07;19.73;;;3.60;99.90;;;;;;5036166;28;20174;-58
2021/11/25 02:02:24;;;;;;;25.97;18.93;;;3.60;99.90;;;;;;5046789;28;20178;-59
2021/11/25 02:04:49;;;;;;;25.40;19.00;;;3.60;99.90;;;;;;5040959;28;20251;-60
2021/11/25 02:07:17;;;;;;;25.23;18.87;;;3.50;99.90;;;;;;5039275;28;20190;-61
2021/11/25 02:09:43;;;;;;;25.48;19.85;;;3.50;99.90;;;;;;5040660;28;20202;-59
2021/11/25 02:12:09;;;;;;;26.20;19.25;;;3.40;99.90;;;;;;5048461;28;20183;-59
2021/11/25 02:14:34;;;;;;;28.43;19.43;;;3.40;99.90;;;;;;5031738;28;20211;-57
2021/11/25 02:17:00;;;;;;;26.00;19.43;;;3.30;99.90;;;;;;5047478;28;21048;-58
2021/11/25 02:19:26;;;;;;;26.33;19.10;;;3.40;99.90;;;;;;5039898;28;20186;-59
2021/11/25 02:21:52;;;;;;;25.35;18.40;;;3.30;99.90;;;;;;5029056;28;20187;-60
2021/11/25 02:24:18;;;;;;;27.30;19.50;;;3.30;99.90;;;;;;5038686;28;20201;-61
2021/11/25 02:26:44;;;;;;;27.70;19.02;;;3.30;99.90;;;;;;5042176;28;20186;-57
2021/11/25 02:29:10;;;;;;;26.73;19.50;;;3.20;99.90;;;;;;5043916;28;20663;-58
2021/11/25 02:31:36;;;;;;;26.20;19.80;;;3.20;99.90;;;;;;5044727;28;20359;-59
2021/11/25 02:34:01;;;;;;;25.83;19.50;;;3.30;99.90;;;;;;5038388;28;20463;-60
2021/11/25 02:36:27;;;;;;;25.30;19.53;;;3.20;99.90;;;;;;5036587;28;20209;-58
2021/11/25 02:38:53;;;;;;;24.40;18.17;;;3.20;99.90;;;;;;5045361;28;20178;-59
2021/11/25 02:41:18;;;;;;;24.27;18.80;;;3.20;99.90;;;;;;5043820;28;20175;-55
2021/11/25 02:43:44;;;;;;;23.20;18.40;;;3.20;99.90;;;;;;5046916;28;20502;-59
2021/11/25 02:46:13;;;;;;;28.43;20.03;;;3.10;99.90;;;;;;5046995;28;20179;-61
2021/11/25 02:48:47;;;;;;;26.15;18.20;;;3.10;99.90;;;;;;5045993;28;20185;-59
2021/11/25 02:51:17;;;;;;;28.00;19.55;;;3.10;99.90;;;;;;5042165;28;20265;-59
2021/11/25 02:53:43;;;;;;;26.40;18.65;;;3.00;99.90;;;;;;5045284;28;20202;-59
2021/11/25 02:56:13;;;;;;;25.77;18.60;;;3.00;99.90;;;;;;5047232;28;20657;-58
2021/11/25 02:58:42;;;;;;;25.50;18.73;;;3.00;99.90;;;;;;5036347;28;20182;-59
2021/11/25 03:01:11;;;;;;;25.60;17.98;;;3.00;99.90;;;;;;5040812;28;20200;-59
2021/11/25 03:03:37;;;;;;;26.65;18.80;;;2.90;99.90;;;;;;5043427;28;20729;-58
2021/11/25 03:06:03;;;;;;;25.33;18.60;;;2.90;99.90;;;;;;5047873;28;20281;-59
2021/11/25 03:08:29;;;;;;;24.77;18.13;;;2.80;99.90;;;;;;5034697;28;20189;-60
2021/11/25 03:11:09;;;;;;;28.17;18.90;;;2.80;99.90;;;;;;5036000;28;20558;-59
2021/11/25 03:13:41;;;;;;;24.10;17.35;;;2.80;99.90;;;;;;5037039;28;20456;-59
2021/11/25 03:16:10;;;;;;;29.27;18.90;;;2.70;99.90;;;;;;5051978;28;20185;-59
2021/11/25 03:18:36;;;;;;;23.83;17.58;;;2.70;99.90;;;;;;5050092;28;20583;-59
2021/11/25 03:21:03;;;;;;;25.70;19.25;;;2.60;99.90;;;;;;5043219;28;20635;-60
2021/11/25 03:23:30;;;;;;;24.67;18.52;;;2.60;99.90;;;;;;5039271;28;20673;-59
2021/11/25 03:25:57;;;;;;;26.77;17.90;;;2.50;99.90;;;;;;5042264;28;20202;-59
2021/11/25 03:28:24;;;;;;;26.40;18.98;;;2.50;99.90;;;;;;5046678;28;20175;-59
2021/11/25 03:30:54;;;;;;;26.10;19.35;;;2.40;99.90;;;;;;5043076;28;20221;-59
2021/11/25 03:33:23;;;;;;;25.88;19.88;;;2.30;99.90;;;;;;5034623;28;20519;-60
2021/11/25 03:35:48;;;;;;;25.88;18.10;;;2.20;99.90;;;;;;5033535;28;20178;-60
2021/11/25 03:38:14;;;;;;;23.07;16.97;;;2.20;99.90;;;;;;5048049;28;20186;-58
2021/11/25 03:40:40;;;;;;;26.92;19.52;;;2.10;99.90;;;;;;5052216;28;20318;-58
2021/11/25 03:43:06;;;;;;;24.83;17.70;;;2.00;99.90;;;;;;5038362;28;20648;-58
2021/11/25 03:45:32;;;;;;;24.10;17.43;;;2.00;99.90;;;;;;5044150;28;20218;-60
2021/11/25 03:47:57;;;;;;;25.87;17.90;;;1.90;99.90;;;;;;5044106;28;20984;-58
2021/11/25 03:50:23;;;;;;;25.33;17.50;;;1.90;99.90;;;;;;5039060;28;20171;-60
2021/11/25 03:52:49;;;;;;;24.43;17.33;;;1.90;99.90;;;;;;5044739;28;20186;-60
2021/11/25 03:55:18;;;;;;;26.90;18.67;;;1.80;99.90;;;;;;5047099;28;20432;-60
2021/11/25 03:57:44;;;;;;;28.88;18.90;;;1.80;99.90;;;;;;5050174;28;20240;-60
2021/11/25 04:00:13;;;;;;;26.70;18.50;;;1.70;99.90;;;;;;5042758;28;20187;-58
2021/11/25 04:02:41;;;;;;;27.33;18.08;;;1.60;99.90;;;;;;5041779;28;20214;-59
2021/11/25 04:05:08;;;;;;;26.25;17.95;;;1.50;99.90;;;;;;5043030;28;20187;-59
2021/11/25 04:07:33;;;;;;;24.85;18.25;;;1.50;99.90;;;;;;5037287;28;20193;-58
2021/11/25 04:09:59;;;;;;;30.93;20.50;;;1.50;99.90;;;;;;5035284;28;20198;-60
2021/11/25 04:12:25;;;;;;;30.23;18.63;;;1.50;99.90;;;;;;5035955;28;20190;-52
2021/11/25 04:14:51;;;;;;;29.50;19.00;;;1.50;99.90;;;;;;5035998;28;21308;-59
2021/11/25 04:17:21;;;;;;;29.63;19.30;;;1.40;99.90;;;;;;5044771;28;20285;-60
2021/11/25 04:19:47;;;;;;;30.38;20.08;;;1.40;99.90;;;;;;5040650;28;20466;-59
2021/11/25 04:22:13;;;;;;;28.23;19.08;;;1.30;99.90;;;;;;5042014;28;20982;-59
2021/11/25 04:24:39;;;;;;;28.30;19.70;;;1.20;99.90;;;;;;5046204;28;20220;-58
2021/11/25 04:27:05;;;;;;;29.90;19.87;;;1.20;99.90;;;;;;5041068;28;20244;-59
2021/11/25 04:29:30;;;;;;;27.97;19.50;;;1.20;99.90;;;;;;5044855;28;20632;-59
2021/11/25 04:37:24;;;;;;;31.60;20.50;;;1.00;99.90;;;;;;5050934;28;20197;-59
2021/11/25 04:39:50;;;;;;;32.27;19.80;;;1.00;99.90;;;;;;5049094;28;20226;-58
2021/11/25 04:42:17;;;;;;;26.60;18.10;;;0.90;99.90;;;;;;5048856;28;20191;-55
2021/11/25 04:44:44;;;;;;;30.63;19.88;;;0.90;99.90;;;;;;5043045;28;20232;-58
2021/11/25 04:47:11;;;;;;;32.00;21.10;;;0.80;99.90;;;;;;5042647;28;20660;-59
2021/11/25 04:49:37;;;;;;;33.20;20.70;;;0.70;99.90;;;;;;5039262;28;20216;-59
2021/11/25 04:52:03;;;;;;;33.57;20.73;;;0.80;99.90;;;;;;5042902;28;20577;-58
2021/11/25 04:54:28;;;;;;;31.83;20.35;;;0.70;99.90;;;;;;5045395;28;20498;-59
2021/11/25 04:56:54;;;;;;;28.60;19.13;;;0.60;99.90;;;;;;5045838;28;20221;-59
2021/11/25 04:59:20;;;;;;;33.47;21.80;;;0.50;99.90;;;;;;5037753;28;20272;-60
2021/11/25 05:01:45;;;;;;;32.60;21.70;;;0.50;99.90;;;;;;5033496;28;20571;-58
2021/11/25 05:04:11;;;;;;;31.20;19.47;;;0.50;99.90;;;;;;5039807;28;20186;-60
2021/11/25 05:06:37;;;;;;;34.00;20.33;;;0.40;99.90;;;;;;5037976;28;20186;-59
2021/11/25 05:09:03;;;;;;;34.70;20.03;;;0.40;99.90;;;;;;5058457;28;20647;-59
2021/11/25 05:11:29;;;;;;;32.53;21.38;;;0.40;99.90;;;;;;5041092;28;20205;-58
2021/11/25 05:13:55;;;;;;;28.03;19.40;;;0.40;99.90;;;;;;5038929;28;20198;-52
2021/11/25 05:16:21;;;;;;;31.47;19.33;;;0.30;99.90;;;;;;5046993;28;20491;-54
2021/11/25 05:18:46;;;;;;;34.20;21.27;;;0.40;99.90;;;;;;5036911;28;20588;-59
2021/11/25 05:21:12;;;;;;;35.67;21.90;;;0.30;99.90;;;;;;5049059;28;20576;-59
2021/11/25 05:23:38;;;;;;;38.83;23.10;;;0.30;99.90;;;;;;5040147;28;20189;-61
2021/11/25 05:26:04;;;;;;;38.07;22.97;;;0.30;99.90;;;;;;5046710;28;20182;-59
2021/11/25 05:28:29;;;;;;;37.90;22.40;;;0.30;99.90;;;;;;5045145;28;20189;-60
2021/11/25 05:30:55;;;;;;;31.40;21.47;;;0.30;99.90;;;;;;5038450;28;20438;-60
2021/11/25 05:33:21;;;;;;;39.50;23.43;;;0.40;99.90;;;;;;5041030;28;20675;-60
2021/11/25 05:35:47;;;;;;;36.92;23.33;;;0.40;99.90;;;;;;5038997;28;20179;-60
2021/11/25 05:38:14;;;;;;;41.00;23.70;;;0.40;99.90;;;;;;5045609;28;20258;-59
2021/11/25 05:40:40;;;;;;;39.00;24.10;;;0.30;99.90;;;;;;5042558;28;20314;-60
2021/11/25 05:43:06;;;;;;;37.08;24.13;;;0.40;99.90;;;;;;5043824;28;20178;-58
2021/11/25 05:45:32;;;;;;;39.07;23.20;;;0.40;99.90;;;;;;5044896;28;20170;-60
2021/11/25 05:47:58;;;;;;;43.40;24.70;;;0.50;99.90;;;;;;5034670;28;20183;-59
2021/11/25 05:50:25;;;;;;;41.50;26.00;;;0.50;99.90;;;;;;5034820;28;20196;-61
2021/11/25 05:52:56;;;;;;;35.20;22.65;;;0.40;99.90;;;;;;5029712;28;20236;-60
2021/11/25 05:55:25;;;;;;;38.40;23.48;;;0.50;99.90;;;;;;5043693;28;20219;-60
2021/11/25 05:57:51;;;;;;;38.42;24.50;;;0.40;99.90;;;;;;5031387;28;20186;-60
2021/11/25 06:00:17;;;;;;;39.80;22.65;;;0.40;99.90;;;;;;5039483;28;20239;-61
2021/11/25 06:02:45;;;;;;;37.10;22.30;;;0.40;99.90;;;;;;5042862;28;20167;-60
2021/11/25 06:05:12;;;;;;;39.95;22.70;;;0.50;99.90;;;;;;5029617;28;20174;-61
2021/11/25 06:07:44;;;;;;;38.35;22.65;;;0.40;99.90;;;;;;5032719;28;20662;-60
2021/11/25 06:10:10;;;;;;;39.88;23.65;;;0.30;99.90;;;;;;5039166;28;20693;-61
2021/11/25 06:12:36;;;;;;;40.70;22.80;;;0.30;99.90;;;;;;5028820;28;20203;-61
2021/11/25 06:15:02;;;;;;;37.13;24.30;;;0.20;99.90;;;;;;5031592;28;20548;-60
2021/11/25 06:17:27;;;;;;;38.10;23.50;;;0.20;99.90;;;;;;5029063;28;20206;-61
2021/11/25 06:19:55;;;;;;;37.43;23.73;;;0.10;99.90;;;;;;5038646;28;20417;-60
2021/11/25 06:22:22;;;;;;;38.28;22.15;;;0.20;99.90;;;;;;5044568;28;20632;-59
2021/11/25 06:24:48;;;;;;;39.00;22.95;;;0.20;99.90;;;;;;5047236;28;20190;-60
2021/11/25 06:27:13;;;;;;;39.45;23.73;;;0.20;99.90;;;;;;5049057;28;20186;-60
2021/11/25 06:29:39;;;;;;;46.43;24.50;;;0.20;99.90;;;;;;5034618;28;20179;-59
2021/11/25 06:32:05;;;;;;;36.90;22.90;;;0.20;99.90;;;;;;5030319;28;20182;-60
2021/11/25 06:34:31;;;;;;;42.63;25.57;;;0.30;99.90;;;;;;5047490;28;20209;-60
2021/11/25 06:36:56;;;;;;;39.77;24.70;;;0.30;99.90;;;;;;5043672;28;20432;-59
2021/11/25 06:39:22;;;;;;;36.00;23.10;;;0.40;99.90;;;;;;5047305;28;20253;-60
2021/11/25 06:41:48;;;;;;;38.77;22.23;;;0.40;99.90;;;;;;5053598;28;20171;-59
2021/11/25 06:44:14;;;;;;;37.97;23.88;;;0.40;99.90;;;;;;5041275;28;20187;-60
2021/11/25 06:46:39;;;;;;;42.50;24.07;;;0.50;99.90;;;;;;5042036;28;20200;-59
2021/11/25 06:49:05;;;;;;;42.00;26.60;;;0.60;99.90;;;;;;5048567;28;20788;-59
2021/11/25 06:51:32;;;;;;;41.60;24.30;;;0.60;99.90;;;;;;5051583;28;20186;-59
2021/11/25 06:53:57;;;;;;;39.60;23.50;;;0.70;99.90;;;;;;5050971;28;20195;-60
2021/11/25 06:56:23;;;;;;;40.90;24.30;;;0.70;99.90;;;;;;5051393;28;20168;-59
2021/11/25 06:58:50;;;;;;;42.70;26.43;;;0.80;99.90;;;;;;5051257;28;20447;-58
2021/11/25 07:01:16;;;;;;;42.75;24.80;;;0.80;99.90;;;;;;5052214;28;20273;-59
2021/11/25 07:03:42;;;;;;;41.77;24.63;;;0.90;99.90;;;;;;5052221;28;20270;-60
2021/11/25 07:06:08;;;;;;;43.28;25.00;;;0.90;99.90;;;;;;5051768;28;20162;-60
2021/11/25 07:08:34;;;;;;;40.23;26.43;;;1.00;99.90;;;;;;5051474;28;20209;-60
2021/11/25 07:10:59;;;;;;;41.57;26.07;;;1.10;99.90;;;;;;5046687;28;20201;-60
2021/11/25 07:13:28;;;;;;;42.97;25.20;;;1.10;99.90;;;;;;5047863;28;20205;-59
2021/11/25 07:15:55;;;;;;;38.50;22.65;;;1.10;99.90;;;;;;5048661;28;20182;-58
2021/11/25 07:18:20;;;;;;;41.25;24.73;;;1.10;99.90;;;;;;5050581;28;20182;-59
2021/11/25 07:20:46;;;;;;;43.83;25.20;;;1.20;99.90;;;;;;5048626;28;20186;-49
2021/11/25 07:23:12;;;;;;;42.87;25.13;;;1.30;99.90;;;;;;5050926;28;20846;-47
2021/11/25 07:25:38;;;;;;;39.67;24.43;;;1.30;99.90;;;;;;5048499;28;20191;-47
2021/11/25 07:28:04;;;;;;;41.80;25.87;;;1.40;99.90;;;;;;5050385;28;20447;-47
2021/11/25 07:30:30;;;;;;;39.50;25.98;;;1.40;99.90;;;;;;5046183;28;20183;-50
2021/11/25 07:32:56;;;;;;;42.77;24.80;;;1.50;99.90;;;;;;5036148;28;20182;-48
2021/11/25 07:35:23;;;;;;;39.30;25.37;;;1.50;99.90;;;;;;5049919;28;20467;-51
2021/11/25 07:37:52;;;;;;;43.67;26.13;;;1.50;99.90;;;;;;5044280;28;20652;-50
2021/11/25 07:40:18;;;;;;;42.60;25.58;;;1.60;99.90;;;;;;5046103;28;20214;-52
2021/11/25 07:42:44;;;;;;;37.67;24.77;;;1.60;99.90;;;;;;5046797;28;20183;-50
2021/11/25 07:45:10;;;;;;;35.63;24.23;;;1.60;99.90;;;;;;5049589;28;20190;-53
2021/11/25 07:47:37;;;;;;;45.13;26.48;;;1.70;99.90;;;;;;5044639;28;20182;-52
2021/11/25 07:50:20;;;;;;;38.17;23.05;;;1.70;99.90;;;;;;5037042;28;20203;-52
2021/11/25 07:52:48;;;;;;;37.05;23.13;;;1.80;99.90;;;;;;5035451;28;20619;-52
2021/11/25 07:55:16;;;;;;;41.90;25.30;;;1.80;99.90;;;;;;5030177;28;20211;-51
2021/11/25 07:57:43;;;;;;;39.15;23.92;;;1.90;99.90;;;;;;5030954;28;20637;-52
2021/11/25 08:00:11;;;;;;;38.80;24.73;;;2.10;99.90;;;;;;5030650;28;20215;-52
2021/11/25 08:02:37;;;;;;;47.75;25.05;;;2.10;99.90;;;;;;5044756;28;20190;-51
2021/11/25 08:05:03;;;;;;;37.07;24.53;;;2.20;99.90;;;;;;5030838;28;20194;-56
2021/11/25 08:07:29;;;;;;;38.40;25.05;;;2.30;99.90;;;;;;5038839;28;20186;-53
2021/11/25 08:09:54;;;;;;;37.50;24.00;;;2.30;99.90;;;;;;5045142;28;20802;-55
2021/11/25 08:12:20;;;;;;;36.70;23.30;;;2.40;99.90;;;;;;5047554;28;20174;-54
2021/11/25 08:14:45;;;;;;;39.93;24.87;;;2.50;99.90;;;;;;5049852;28;21051;-51
2021/11/25 08:17:11;;;;;;;38.20;23.43;;;2.60;99.90;;;;;;5047848;28;20174;-50
2021/11/25 08:19:38;;;;;;;37.43;23.30;;;2.60;99.90;;;;;;5046328;28;20587;-53
2021/11/25 08:22:04;;;;;;;39.15;23.88;;;2.70;99.90;;;;;;5047819;28;20179;-53
2021/11/25 08:24:30;;;;;;;36.67;24.73;;;2.70;99.90;;;;;;5031118;28;20272;-52
2021/11/25 08:26:56;;;;;;;38.40;27.10;;;2.70;99.90;;;;;;5042325;28;20968;-51
2021/11/25 08:29:22;;;;;;;38.17;24.65;;;2.80;99.90;;;;;;5039209;28;20440;-50
2021/11/25 08:31:49;;;;;;;35.28;24.35;;;2.90;99.90;;;;;;5030307;28;20183;-52
2021/11/25 08:34:15;;;;;;;39.03;24.45;;;2.90;99.90;;;;;;5042243;28;20201;-50
2021/11/25 08:36:41;;;;;;;35.05;23.55;;;3.00;99.90;;;;;;5031881;28;20222;-51
2021/11/25 08:39:07;;;;;;;31.43;23.23;;;3.10;99.90;;;;;;5043009;28;20956;-54
2021/11/25 08:41:33;;;;;;;36.37;23.90;;;3.20;99.90;;;;;;5049878;28;21007;-50
2021/11/25 08:43:58;;;;;;;34.30;21.93;;;3.30;99.90;;;;;;5039835;28;20190;-56
2021/11/25 08:46:24;;;;;;;35.20;22.30;;;3.40;99.90;;;;;;5035588;28;20423;-51
2021/11/25 08:48:50;;;;;;;34.47;24.42;;;3.30;99.90;;;;;;5039006;28;20305;-51
2021/11/25 08:51:16;;;;;;;35.67;23.47;;;3.30;99.90;;;;;;5029898;28;20211;-49
2021/11/25 08:53:43;;;;;;;36.30;24.67;;;3.30;99.90;;;;;;5030883;28;20214;-54
2021/11/25 08:56:10;;;;;;;38.58;25.00;;;3.40;99.90;;;;;;5047141;28;20206;-51
2021/11/25 08:58:37;;;;;;;36.50;24.00;;;3.40;99.90;;;;;;5040737;28;20179;-52
2021/11/25 09:01:04;;;;;;;35.15;24.05;;;3.50;99.90;;;;;;5043993;28;20178;-54
2021/11/25 09:03:30;;;;;;;37.30;24.70;;;3.40;99.90;;;;;;5042848;28;20205;-51
2021/11/25 09:05:58;;;;;;;37.60;25.33;;;3.40;99.90;;;;;;5035221;28;20197;-54
2021/11/25 09:08:23;;;;;;;36.20;23.77;;;3.40;99.90;;;;;;5031102;28;20273;-52
2021/11/25 09:10:49;;;;;;;34.37;24.00;;;3.50;99.90;;;;;;5046897;28;20294;-52
2021/11/25 09:13:15;;;;;;;39.53;25.93;;;3.60;99.90;;;;;;5048299;28;20436;-49
2021/11/25 09:15:42;;;;;;;36.60;25.03;;;3.70;99.90;;;;;;5037508;28;20409;-49
2021/11/25 09:18:09;;;;;;;38.88;25.58;;;3.70;99.90;;;;;;5033398;28;20425;-53
2021/11/25 09:20:39;;;;;;;42.75;27.13;;;3.60;99.90;;;;;;5041515;28;20174;-51
2021/11/25 09:23:08;;;;;;;37.35;25.90;;;3.40;99.90;;;;;;5031099;28;20273;-49
2021/11/25 09:25:35;;;;;;;37.55;24.20;;;3.40;99.90;;;;;;5049443;28;20174;-51
2021/11/25 09:28:02;;;;;;;34.45;25.00;;;3.60;99.90;;;;;;5048497;28;20178;-51
2021/11/25 09:30:29;;;;;;;35.45;24.25;;;3.70;99.90;;;;;;5049522;28;20167;-52
2021/11/25 09:32:55;;;;;;;37.47;25.17;;;3.60;99.90;;;;;;5045538;28;20181;-50
2021/11/25 09:35:21;;;;;;;35.95;25.42;;;3.70;99.90;;;;;;5040024;28;20198;-52
2021/11/25 09:37:48;;;;;;;38.97;26.67;;;3.70;99.90;;;;;;5048322;28;20277;-53
2021/11/25 09:40:23;;;;;;;36.40;25.15;;;3.80;99.90;;;;;;5046925;28;20240;-53
2021/11/25 09:42:57;;;;;;;33.78;24.58;;;3.90;99.90;;;;;;5045363;28;20202;-53
2021/11/25 09:45:24;;;;;;;34.35;24.50;;;3.90;99.90;;;;;;5037980;28;20174;-52
2021/11/25 09:47:51;;;;;;;33.30;24.42;;;3.80;99.90;;;;;;5041948;28;20567;-49
2021/11/25 09:50:22;;;;;;;35.35;24.33;;;3.90;99.90;;;;;;5028447;28;20179;-50
2021/11/25 09:52:51;;;;;;;37.08;24.48;;;3.90;99.90;;;;;;5028765;28;20183;-50
2021/11/25 09:55:17;;;;;;;34.47;23.75;;;3.90;99.90;;;;;;5041273;28;20206;-50
2021/11/25 09:57:43;;;;;;;35.75;25.30;;;3.90;99.90;;;;;;5035251;28;20185;-53
2021/11/25 10:00:10;;;;;;;36.03;23.30;;;3.90;99.90;;;;;;5048587;28;20178;-47
2021/11/25 10:02:35;;;;;;;34.40;24.00;;;3.90;99.90;;;;;;5047869;28;20201;-52
2021/11/25 10:05:02;;;;;;;35.43;25.07;;;4.00;99.90;;;;;;5041066;28;20621;-52
2021/11/25 10:07:37;;;;;;;38.85;25.85;;;4.10;99.90;;;;;;5036986;28;20244;-48
2021/11/25 10:10:30;;;;;;;37.10;25.63;;;4.10;99.90;;;;;;5038973;28;20216;-53
2021/11/25 10:13:12;;;;;;;36.15;25.13;;;4.10;99.90;;;;;;5051838;28;20193;-53
2021/11/25 10:15:40;;;;;;;34.88;24.50;;;4.10;99.90;;;;;;5046356;28;20214;-49
2021/11/25 10:18:11;;;;;;;36.38;25.35;;;4.10;99.90;;;;;;5040065;28;20183;-51
2021/11/25 10:20:43;;;;;;;36.97;25.08;;;4.10;99.90;;;;;;5045867;28;20171;-52
2021/11/25 10:23:26;;;;;;;36.00;25.60;;;4.20;99.90;;;;;;5046043;28;20190;-53
2021/11/25 10:26:00;;;;;;;34.50;25.98;;;4.30;99.90;;;;;;5044788;28;20181;-54
2021/11/25 10:28:50;;;;;;;39.40;26.00;;;4.30;99.90;;;;;;5042599;28;20181;-56
2021/11/25 10:31:21;;;;;;;33.35;23.20;;;4.40;99.90;;;;;;5040582;28;20528;-50
2021/11/25 10:33:54;;;;;;;36.42;24.90;;;4.50;99.90;;;;;;5044824;28;20229;-51
2021/11/25 10:39:07;;;;;;;32.08;23.85;;;4.60;99.90;;;;;;5045717;28;20218;-52
2021/11/25 10:41:33;;;;;;;34.85;24.60;;;4.60;99.90;;;;;;5043192;28;20273;-54
2021/11/25 10:44:05;;;;;;;34.15;24.80;;;4.60;99.90;;;;;;5040189;28;20182;-51
2021/11/25 10:46:39;;;;;;;37.00;25.58;;;4.70;99.90;;;;;;5028279;28;20218;-52
2021/11/25 10:49:05;;;;;;;32.55;24.25;;;4.70;99.90;;;;;;5037350;28;20201;-50
2021/11/25 10:51:34;;;;;;;32.93;22.93;;;4.80;99.90;;;;;;5035525;28;20186;-50
2021/11/25 10:54:07;;;;;;;32.50;22.80;;;4.80;99.90;;;;;;5045917;28;20206;-50
2021/11/25 10:56:55;;;;;;;29.23;20.95;;;4.80;99.90;;;;;;5037120;28;20236;-48
2021/11/25 10:59:34;;;;;;;33.20;22.10;;;4.90;99.90;;;;;;5041292;28;20285;-49
2021/11/25 11:01:59;;;;;;;29.98;21.65;;;4.90;99.90;;;;;;5034920;28;20185;-50
2021/11/25 11:04:28;;;;;;;26.87;21.50;;;5.00;99.90;;;;;;5039936;28;20578;-51
2021/11/25 11:06:55;;;;;;;29.55;21.42;;;4.90;99.90;;;;;;5041650;28;20285;-53
2021/11/25 11:09:34;;;;;;;28.35;20.63;;;4.90;99.90;;;;;;5032578;28;20178;-51
2021/11/25 11:12:32;;;;;;;30.63;21.70;;;4.90;99.90;;;;;;5036046;28;20760;-51
2021/11/25 11:15:12;;;;;;;30.25;21.67;;;4.90;99.90;;;;;;5032690;28;20233;-54
2021/11/25 11:17:59;;;;;;;30.63;21.10;;;4.90;99.90;;;;;;5035174;28;20217;-56
2021/11/25 11:20:24;;;;;;;25.65;19.52;;;4.90;99.90;;;;;;5037007;28;20189;-53
2021/11/25 11:23:02;;;;;;;26.30;19.53;;;4.90;99.90;;;;;;5040195;28;20182;-53
2021/11/25 11:25:33;;;;;;;28.27;19.63;;;4.80;99.90;;;;;;5028270;28;20232;-51
2021/11/25 11:27:59;;;;;;;27.27;18.73;;;4.80;99.90;;;;;;5034454;28;20195;-48
2021/11/25 11:30:26;;;;;;;27.73;18.90;;;4.80;99.90;;;;;;5027986;28;20183;-52
2021/11/25 11:32:53;;;;;;;26.20;18.88;;;4.90;99.90;;;;;;5044901;28;20241;-51
2021/11/25 11:35:22;;;;;;;25.60;18.40;;;4.80;99.90;;;;;;5042435;28;20207;-53
2021/11/25 11:37:50;;;;;;;23.05;17.40;;;4.70;99.90;;;;;;5040840;28;20178;-57
2021/11/25 11:40:16;;;;;;;24.80;18.65;;;4.70;99.90;;;;;;5050553;28;20851;-52
2021/11/25 11:42:43;;;;;;;22.83;17.03;;;4.70;99.90;;;;;;5042284;28;20262;-53
2021/11/25 11:45:09;;;;;;;23.23;17.17;;;4.60;99.90;;;;;;5041058;28;20189;-53
2021/11/25 11:47:35;;;;;;;24.47;18.93;;;4.60;99.90;;;;;;5048348;28;20183;-54
2021/11/25 11:50:09;;;;;;;24.55;17.63;;;4.60;99.90;;;;;;5049317;28;20429;-51
2021/11/25 11:52:36;;;;;;;23.90;17.35;;;4.70;99.90;;;;;;5043255;28;20190;-49
2021/11/25 11:55:03;;;;;;;22.98;17.70;;;4.70;99.90;;;;;;5044493;28;20206;-53
2021/11/25 11:57:32;;;;;;;21.98;15.80;;;4.60;99.90;;;;;;5037214;28;20206;-51
2021/11/25 12:00:04;;;;;;;22.55;15.93;;;4.50;99.90;;;;;;5049884;28;20175;-53
2021/11/25 12:02:57;;;;;;;22.75;16.33;;;4.50;99.90;;;;;;5036575;28;20217;-54
2021/11/25 12:05:43;;;;;;;23.13;17.13;;;4.60;99.90;;;;;;5045904;28;20726;-52
2021/11/25 12:08:24;;;;;;;18.90;15.55;;;4.70;99.90;;;;;;5032304;28;20824;-53
2021/11/25 12:10:56;;;;;;;24.83;16.42;;;4.60;99.90;;;;;;5047933;28;20193;-52
2021/11/25 12:13:24;;;;;;;23.23;16.77;;;4.50;99.90;;;;;;5041535;28;20175;-55
2021/11/25 12:15:50;;;;;;;22.42;16.25;;;4.50;99.90;;;;;;5037827;28;20199;-56
2021/11/25 12:18:42;;;;;;;26.03;17.43;;;4.60;99.90;;;;;;5041058;28;20858;-58
2021/11/25 12:21:08;;;;;;;20.30;15.55;;;4.60;99.90;;;;;;5046216;28;20433;-49
2021/11/25 12:23:39;;;;;;;22.97;17.07;;;4.60;99.90;;;;;;5050411;28;20239;-52
2021/11/25 12:26:06;;;;;;;20.83;16.55;;;4.60;99.90;;;;;;5031033;28;20868;-50
2021/11/25 12:28:42;;;;;;;21.90;16.42;;;4.50;99.90;;;;;;5049412;28;20175;-50
2021/11/25 12:33:49;;;;;;;20.63;14.82;;;4.50;99.90;;;;;;5036106;28;20209;-53
2021/11/25 12:36:37;;;;;;;22.38;15.80;;;4.40;99.90;;;;;;5037135;28;20177;-54
2021/11/25 12:39:26;;;;;;;21.85;15.88;;;4.40;99.90;;;;;;5047412;28;20230;-55
2021/11/25 12:41:52;;;;;;;21.88;15.70;;;4.40;99.90;;;;;;5047680;28;20174;-52
2021/11/25 12:44:17;;;;;;;22.70;17.03;;;4.50;99.90;;;;;;5045319;28;20648;-53
2021/11/25 12:46:43;;;;;;;21.90;15.93;;;4.40;99.90;;;;;;5048268;28;20429;-51
2021/11/25 12:49:17;;;;;;;25.87;17.53;;;4.40;99.90;;;;;;5045221;28;20625;-49